createdAt,value
2017-09-17T00:00:15.192Z,88.65
2017-09-17T00:02:49.977Z,88.69
2017-09-17T00:05:25.614Z,88.71
2017-09-17T00:08:00.851Z,88.84
2017-09-17T00:10:35.794Z,88.78
2017-09-17T00:13:10.941Z,88.79
2017-09-17T00:15:45.914Z,89.77
2017-09-17T00:18:20.814Z,89.99
2017-09-17T00:20:55.837Z,89.85
2017-09-17T00:23:30.623Z,89.56
2017-09-17T00:26:06.549Z,89.44
2017-09-17T00:28:41.363Z,89.25
2017-09-17T00:31:16.447Z,88.79
2017-09-17T00:33:51.484Z,88.06
2017-09-17T00:36:26.275Z,87.69
2017-09-17T00:39:01.222Z,87.67
2017-09-17T00:41:35.851Z,87.75
2017-09-17T00:44:10.319Z,87.84
2017-09-17T00:46:45.545Z,87.90
2017-09-17T00:49:20.668Z,87.87
2017-09-17T00:51:54.924Z,87.92
2017-09-17T00:54:29.755Z,87.88
2017-09-17T00:57:04.894Z,88.21
2017-09-17T00:59:39.603Z,88.33
2017-09-17T01:02:14.008Z,88.85
2017-09-17T01:04:49.359Z,89.00
2017-09-17T01:07:24.416Z,89.49
2017-09-17T01:09:58.571Z,89.62
2017-09-17T01:12:33.750Z,89.37
2017-09-17T01:15:08.323Z,89.09
2017-09-17T01:17:43.360Z,89.18
2017-09-17T01:20:18.156Z,89.11
2017-09-17T01:22:53.129Z,89.29
2017-09-17T01:25:28.036Z,90.52
2017-09-17T01:28:03.789Z,91.35
2017-09-17T01:30:38.787Z,91.67
2017-09-17T01:33:13.851Z,91.80
2017-09-17T01:35:48.740Z,91.76
2017-09-17T01:38:23.680Z,91.66
2017-09-17T01:40:58.692Z,91.66
2017-09-17T01:43:33.887Z,91.76
2017-09-17T01:46:08.786Z,91.42
2017-09-17T01:48:43.892Z,91.26
2017-09-17T01:51:18.743Z,91.16
2017-09-17T01:53:53.476Z,90.95
2017-09-17T01:56:28.389Z,90.60
2017-09-17T01:59:03.249Z,90.21
2017-09-17T02:01:38.227Z,89.78
2017-09-17T02:04:13.031Z,89.38
2017-09-17T02:06:47.855Z,89.17
2017-09-17T02:09:22.964Z,88.96
2017-09-17T02:11:57.723Z,88.60
2017-09-17T02:14:32.472Z,88.50
2017-09-17T02:17:07.355Z,88.49
2017-09-17T02:19:42.277Z,90.70
2017-09-17T02:22:17.104Z,91.08
2017-09-17T02:24:51.895Z,90.91
2017-09-17T02:27:26.935Z,91.05
2017-09-17T02:30:02.040Z,91.01
2017-09-17T02:32:36.839Z,90.73
2017-09-17T02:35:11.829Z,91.46
2017-09-17T02:37:46.698Z,91.78
2017-09-17T02:40:21.389Z,92.14
2017-09-17T02:42:56.484Z,91.61
2017-09-17T02:45:30.971Z,91.34
2017-09-17T02:48:05.754Z,91.66
2017-09-17T02:50:40.927Z,92.69
2017-09-17T02:53:15.715Z,92.89
2017-09-17T02:55:50.505Z,92.72
2017-09-17T02:58:25.507Z,92.31
2017-09-17T03:01:00.540Z,91.90
2017-09-17T03:03:35.426Z,91.55
2017-09-17T03:06:10.540Z,91.52
2017-09-17T03:08:45.167Z,92.44
2017-09-17T03:11:20.372Z,93.03
2017-09-17T03:13:55.283Z,93.04
2017-09-17T03:16:29.992Z,92.78
2017-09-17T03:19:05.028Z,92.57
2017-09-17T03:21:39.836Z,92.44
2017-09-17T03:24:14.603Z,92.38
2017-09-17T03:26:49.296Z,92.45
2017-09-17T03:29:24.313Z,92.71
2017-09-17T03:31:59.424Z,92.66
2017-09-17T03:34:34.323Z,92.59
2017-09-17T03:37:09.290Z,92.57
2017-09-17T03:39:44.104Z,92.43
2017-09-17T03:42:24.347Z,92.23
2017-09-17T03:44:58.971Z,92.23
2017-09-17T03:47:33.776Z,92.18
2017-09-17T03:50:08.815Z,92.14
2017-09-17T03:52:43.871Z,92.30
2017-09-17T03:55:18.695Z,92.73
2017-09-17T03:57:53.598Z,92.79
2017-09-17T04:00:28.431Z,92.63
2017-09-17T04:03:03.257Z,92.71
2017-09-17T04:05:38.303Z,92.72
2017-09-17T04:08:13.081Z,92.71
2017-09-17T04:10:47.792Z,92.65
2017-09-17T04:13:22.747Z,92.65
2017-09-17T04:15:57.739Z,92.92
2017-09-17T04:18:32.679Z,92.86
2017-09-17T04:21:07.394Z,92.99
2017-09-17T04:23:42.465Z,93.20
2017-09-17T04:26:17.512Z,93.11
2017-09-17T04:28:52.234Z,93.13
2017-09-17T04:31:27.549Z,93.13
2017-09-17T04:34:02.495Z,92.75
2017-09-17T04:36:37.335Z,92.56
2017-09-17T04:39:12.125Z,92.34
2017-09-17T04:41:47.164Z,92.14
2017-09-17T04:44:22.043Z,91.98
2017-09-17T04:46:57.260Z,92.12
2017-09-17T04:49:32.080Z,92.38
2017-09-17T04:52:06.871Z,92.42
2017-09-17T04:54:41.883Z,92.29
2017-09-17T04:57:16.751Z,92.59
2017-09-17T04:59:51.599Z,92.70
2017-09-17T05:02:26.432Z,92.65
2017-09-17T05:05:01.768Z,92.44
2017-09-17T05:07:36.771Z,92.15
2017-09-17T05:10:12.095Z,92.18
2017-09-17T05:12:46.897Z,92.16
2017-09-17T05:15:22.318Z,92.10
2017-09-17T05:17:57.083Z,92.38
2017-09-17T05:20:32.131Z,92.61
2017-09-17T05:23:07.184Z,92.60
2017-09-17T05:25:41.943Z,92.58
2017-09-17T05:28:16.953Z,92.68
2017-09-17T05:30:51.848Z,92.73
2017-09-17T05:33:26.802Z,92.62
2017-09-17T05:36:01.517Z,92.59
2017-09-17T05:38:36.982Z,92.47
2017-09-17T05:41:12.623Z,92.29
2017-09-17T05:43:47.873Z,92.11
2017-09-17T05:46:22.798Z,91.90
2017-09-17T05:48:57.952Z,91.72
2017-09-17T05:51:32.476Z,91.72
2017-09-17T05:54:07.267Z,91.92
2017-09-17T05:56:42.198Z,92.02
2017-09-17T05:59:18.004Z,92.04
2017-09-17T06:01:52.802Z,91.86
2017-09-17T06:04:27.901Z,91.72
2017-09-17T06:07:02.719Z,91.60
2017-09-17T06:09:37.778Z,91.43
2017-09-17T06:12:12.951Z,91.23
2017-09-17T06:14:47.648Z,91.18
2017-09-17T06:17:22.827Z,91.16
2017-09-17T06:19:57.721Z,91.17
2017-09-17T06:22:32.759Z,91.10
2017-09-17T06:25:07.726Z,91.15
2017-09-17T06:27:42.414Z,91.72
2017-09-17T06:30:17.568Z,92.01
2017-09-17T06:32:52.508Z,91.85
2017-09-17T06:35:27.351Z,91.76
2017-09-17T06:38:02.446Z,91.45
2017-09-17T06:40:37.109Z,91.26
2017-09-17T06:43:12.244Z,91.34
2017-09-17T06:45:47.017Z,91.51
2017-09-17T06:48:21.855Z,91.56
2017-09-17T06:50:56.677Z,91.39
2017-09-17T06:53:31.885Z,91.48
2017-09-17T06:56:06.558Z,91.41
2017-09-17T06:58:41.555Z,91.23
2017-09-17T07:01:16.692Z,91.35
2017-09-17T07:03:51.563Z,91.26
2017-09-17T07:06:26.514Z,91.13
2017-09-17T07:09:01.214Z,90.71
2017-09-17T07:11:36.144Z,90.79
2017-09-17T07:14:10.956Z,90.95
2017-09-17T07:16:45.779Z,90.37
2017-09-17T07:19:20.867Z,89.09
2017-09-17T07:21:55.378Z,88.71
2017-09-17T07:24:30.293Z,88.34
2017-09-17T07:27:05.089Z,87.10
2017-09-17T07:29:39.786Z,86.67
2017-09-17T07:32:14.659Z,86.03
2017-09-17T07:34:49.552Z,84.49
2017-09-17T07:37:24.523Z,84.82
2017-09-17T07:39:59.555Z,82.78
2017-09-17T07:42:34.087Z,82.72
2017-09-17T07:45:08.881Z,82.17
2017-09-17T07:47:44.087Z,80.32
2017-09-17T07:50:40.282Z,80.07
2017-09-17T07:53:14.838Z,78.54
2017-09-17T07:55:49.813Z,77.42
2017-09-17T07:58:24.951Z,77.75
2017-09-17T08:00:59.752Z,78.21
2017-09-17T08:03:34.340Z,78.27
2017-09-17T08:06:09.294Z,78.29
2017-09-17T08:08:43.983Z,78.51
2017-09-17T08:11:18.593Z,78.68
2017-09-17T08:13:53.532Z,78.33
2017-09-17T08:16:28.383Z,77.15
2017-09-17T08:19:02.990Z,76.71
2017-09-17T08:21:38.263Z,75.97
2017-09-17T08:24:13.188Z,74.59
2017-09-17T08:26:47.980Z,72.76
2017-09-17T08:29:22.728Z,72.58
2017-09-17T08:31:57.781Z,72.56
2017-09-17T08:34:32.478Z,72.41
2017-09-17T08:37:07.319Z,72.00
2017-09-17T08:39:42.327Z,70.50
2017-09-17T08:42:16.995Z,70.49
2017-09-17T08:44:51.824Z,69.81
2017-09-17T08:47:26.835Z,68.74
2017-09-17T08:50:01.671Z,66.57
2017-09-17T08:52:36.881Z,65.79
2017-09-17T08:55:11.455Z,65.43
2017-09-17T08:57:46.487Z,66.54
2017-09-17T09:00:20.784Z,64.15
2017-09-17T09:02:55.871Z,64.03
2017-09-17T09:05:30.783Z,64.90
2017-09-17T09:08:05.588Z,63.52
2017-09-17T09:10:40.267Z,62.94
2017-09-17T09:13:15.264Z,61.35
2017-09-17T09:15:50.261Z,59.40
2017-09-17T09:18:25.138Z,60.00
2017-09-17T09:20:59.832Z,57.33
2017-09-17T09:23:34.548Z,56.70
2017-09-17T09:26:09.364Z,56.90
2017-09-17T09:28:44.283Z,58.03
2017-09-17T09:31:19.276Z,57.11
2017-09-17T09:33:53.911Z,58.11
2017-09-17T09:36:28.533Z,57.57
2017-09-17T09:39:03.227Z,57.63
2017-09-17T09:41:38.084Z,60.67
2017-09-17T09:44:13.119Z,60.38
2017-09-17T09:46:47.839Z,59.31
2017-09-17T09:49:22.575Z,58.51
2017-09-17T09:51:57.421Z,58.41
2017-09-17T09:54:31.866Z,58.02
2017-09-17T09:57:07.051Z,61.61
2017-09-17T09:59:41.865Z,61.51
2017-09-17T10:02:16.733Z,61.99
2017-09-17T10:04:51.663Z,62.41
2017-09-17T10:07:26.476Z,62.51
2017-09-17T10:10:01.547Z,63.13
2017-09-17T10:12:36.280Z,61.97
2017-09-17T10:15:10.761Z,61.35
2017-09-17T10:17:46.128Z,59.92
2017-09-17T10:20:20.779Z,59.06
2017-09-17T10:22:55.672Z,56.99
2017-09-17T10:25:30.560Z,54.96
2017-09-17T10:28:05.443Z,55.28
2017-09-17T10:30:40.286Z,53.18
2017-09-17T10:33:14.929Z,52.38
2017-09-17T10:35:49.771Z,51.27
2017-09-17T10:38:24.693Z,51.84
2017-09-17T10:40:59.484Z,52.27
2017-09-17T10:43:34.082Z,50.67
2017-09-17T10:46:08.895Z,50.55
2017-09-17T10:48:43.418Z,51.67
2017-09-17T10:51:17.852Z,52.35
2017-09-17T10:53:52.756Z,52.18
2017-09-17T10:56:27.636Z,49.64
2017-09-17T10:59:02.564Z,49.17
2017-09-17T11:01:37.489Z,48.89
2017-09-17T11:04:12.179Z,47.21
2017-09-17T11:06:47.019Z,47.98
2017-09-17T11:09:22.051Z,47.30
2017-09-17T11:11:56.831Z,47.83
2017-09-17T11:14:31.535Z,47.62
2017-09-17T11:17:06.067Z,48.00
2017-09-17T11:19:40.771Z,47.10
2017-09-17T11:22:16.204Z,47.24
2017-09-17T11:24:50.998Z,48.73
2017-09-17T11:27:27.362Z,47.55
2017-09-17T11:30:02.666Z,46.94
2017-09-17T11:32:38.232Z,47.73
2017-09-17T11:35:12.812Z,48.58
2017-09-17T11:37:47.611Z,47.79
2017-09-17T11:40:22.381Z,45.31
2017-09-17T11:42:57.310Z,45.10
2017-09-17T11:45:32.028Z,44.65
2017-09-17T11:48:06.856Z,46.52
2017-09-17T11:50:41.802Z,46.79
2017-09-17T11:53:16.353Z,47.65
2017-09-17T11:55:51.279Z,48.09
2017-09-17T11:58:25.975Z,47.96
2017-09-17T12:01:00.556Z,47.90
2017-09-17T12:03:35.257Z,46.64
2017-09-17T12:06:10.126Z,47.76
2017-09-17T12:08:44.675Z,48.87
2017-09-17T12:11:19.339Z,49.85
2017-09-17T12:13:54.343Z,48.69
2017-09-17T12:16:29.363Z,48.48
2017-09-17T12:19:04.147Z,49.30
2017-09-17T12:21:39.063Z,47.63
2017-09-17T12:24:13.784Z,47.88
2017-09-17T12:26:48.489Z,47.21
2017-09-17T12:29:23.220Z,44.41
2017-09-17T12:31:58.323Z,45.77
2017-09-17T12:34:33.031Z,45.72
2017-09-17T12:37:07.804Z,46.43
2017-09-17T12:39:42.801Z,47.33
2017-09-17T12:42:17.609Z,47.85
2017-09-17T12:44:52.331Z,47.46
2017-09-17T12:47:27.207Z,45.75
2017-09-17T12:50:02.843Z,44.96
2017-09-17T12:52:37.828Z,43.24
2017-09-17T12:55:12.623Z,42.83
2017-09-17T12:57:47.422Z,43.18
2017-09-17T13:00:22.171Z,42.16
2017-09-17T13:02:56.723Z,41.77
2017-09-17T13:05:31.639Z,43.09
2017-09-17T13:08:06.135Z,44.07
2017-09-17T13:10:41.395Z,44.10
2017-09-17T13:13:16.107Z,45.88
2017-09-17T13:15:50.848Z,44.32
2017-09-17T13:18:25.783Z,43.58
2017-09-17T13:21:00.274Z,42.52
2017-09-17T13:23:35.234Z,42.91
2017-09-17T13:26:09.904Z,44.13
2017-09-17T13:28:44.845Z,45.30
2017-09-17T13:31:19.829Z,46.39
2017-09-17T13:33:54.548Z,46.93
2017-09-17T13:36:30.669Z,47.18
2017-09-17T13:39:05.862Z,48.04
2017-09-17T13:41:41.187Z,47.16
2017-09-17T13:44:15.504Z,48.27
2017-09-17T13:46:50.115Z,47.73
2017-09-17T13:49:24.943Z,48.22
2017-09-17T13:51:59.698Z,48.04
2017-09-17T13:54:34.132Z,49.94
2017-09-17T13:57:08.905Z,50.75
2017-09-17T14:00:04.392Z,51.00
2017-09-17T14:02:49.771Z,50.99
2017-09-17T14:05:29.856Z,52.08
2017-09-17T14:08:06.260Z,52.96
2017-09-17T14:10:42.287Z,54.73
2017-09-17T14:13:16.644Z,56.34
2017-09-17T14:15:51.839Z,58.46
2017-09-17T14:18:26.039Z,57.99
2017-09-17T14:21:00.772Z,58.84
2017-09-17T14:23:35.287Z,58.87
2017-09-17T14:26:09.916Z,57.45
2017-09-17T14:28:44.709Z,59.04
2017-09-17T14:31:19.542Z,59.54
2017-09-17T14:33:54.569Z,59.01
2017-09-17T14:36:29.413Z,58.37
2017-09-17T14:39:03.403Z,58.19
2017-09-17T14:41:38.011Z,57.50
2017-09-17T14:44:12.721Z,56.93
2017-09-17T14:46:47.261Z,56.38
2017-09-17T14:49:21.861Z,57.98
2017-09-17T14:51:56.613Z,57.10
2017-09-17T14:54:31.261Z,57.17
2017-09-17T14:57:06.112Z,57.98
2017-09-17T14:59:41.217Z,58.66
2017-09-17T15:02:15.996Z,59.68
2017-09-17T15:04:50.631Z,60.59
2017-09-17T15:07:25.186Z,60.75
2017-09-17T15:09:59.854Z,62.85
2017-09-17T15:12:34.659Z,63.79
2017-09-17T15:15:09.711Z,65.55
2017-09-17T15:17:44.435Z,65.93
2017-09-17T15:20:19.199Z,66.87
2017-09-17T15:22:54.048Z,67.27
2017-09-17T15:25:28.774Z,67.39
2017-09-17T15:28:03.734Z,69.60
2017-09-17T15:30:38.664Z,72.10
2017-09-17T15:33:13.169Z,73.19
2017-09-17T15:35:47.754Z,72.88
2017-09-17T15:38:22.513Z,71.72
2017-09-17T15:40:57.322Z,72.21
2017-09-17T15:43:31.939Z,71.86
2017-09-17T15:46:06.651Z,72.21
2017-09-17T15:48:41.598Z,71.85
2017-09-17T15:51:16.679Z,71.81
2017-09-17T15:53:51.091Z,72.36
2017-09-17T15:56:25.878Z,71.50
2017-09-17T15:59:01.666Z,71.73
2017-09-17T16:01:37.419Z,71.22
2017-09-17T16:04:11.848Z,69.12
2017-09-17T16:06:46.787Z,68.73
2017-09-17T16:09:21.523Z,71.61
2017-09-17T16:11:56.132Z,72.37
2017-09-17T16:14:31.065Z,72.06
2017-09-17T16:17:05.866Z,71.34
2017-09-17T16:19:41.472Z,71.38
2017-09-17T16:22:16.171Z,71.33
2017-09-17T16:24:51.161Z,70.27
2017-09-17T16:27:25.687Z,70.66
2017-09-17T16:30:00.676Z,71.45
2017-09-17T16:48:19.849Z,70.32
2017-09-17T16:50:54.549Z,69.50
2017-09-17T16:53:30.139Z,68.33
2017-09-17T16:56:05.059Z,69.97
2017-09-17T16:58:40.454Z,71.30
2017-09-17T17:01:15.158Z,71.82
2017-09-17T17:03:49.474Z,73.18
2017-09-17T17:06:24.265Z,73.55
2017-09-17T17:08:59.069Z,73.95
2017-09-17T17:11:33.623Z,73.88
2017-09-17T17:14:08.200Z,74.17
2017-09-17T17:16:43.082Z,74.73
2017-09-17T17:19:17.598Z,74.04
2017-09-17T17:21:52.148Z,73.70
2017-09-17T17:24:26.763Z,74.02
2017-09-17T17:27:01.239Z,75.17
2017-09-17T17:29:35.800Z,75.96
2017-09-17T17:32:10.537Z,76.18
2017-09-17T17:34:45.272Z,77.72
2017-09-17T17:37:19.856Z,77.79
2017-09-17T17:39:54.360Z,79.13
2017-09-17T17:42:29.083Z,80.51
2017-09-17T17:45:03.415Z,81.43
2017-09-17T17:47:38.907Z,81.61
2017-09-17T17:50:14.472Z,80.67
2017-09-17T17:52:49.376Z,81.08
2017-09-17T17:55:24.075Z,81.38
2017-09-17T17:57:59.627Z,81.19
2017-09-17T18:00:34.399Z,81.18
2017-09-17T18:03:08.935Z,80.92
2017-09-17T18:05:43.847Z,81.78
2017-09-17T18:08:18.878Z,81.99
2017-09-17T18:10:53.620Z,82.01
2017-09-17T18:13:28.446Z,82.08
2017-09-17T18:16:03.202Z,82.18
2017-09-17T18:18:41.468Z,82.44
2017-09-17T19:43:20.490Z,85.86
2017-09-17T19:45:55.277Z,85.95
2017-09-17T19:48:29.712Z,86.20
2017-09-17T19:51:04.499Z,86.92
2017-09-17T19:53:39.309Z,86.79
2017-09-17T19:56:14.040Z,87.23
2017-09-17T19:58:48.661Z,85.08
2017-09-17T20:01:23.352Z,84.87
2017-09-17T20:03:58.079Z,84.35
2017-09-17T20:06:32.644Z,83.98
2017-09-17T20:09:07.596Z,84.12
2017-09-17T20:11:42.384Z,84.41
2017-09-17T20:14:17.178Z,84.95
2017-09-17T20:16:52.075Z,85.48
2017-09-17T20:19:26.826Z,85.60
2017-09-17T20:22:01.412Z,85.55
2017-09-17T20:24:36.248Z,85.33
2017-09-17T20:27:11.147Z,85.41
2017-09-17T20:29:46.290Z,84.91
2017-09-17T20:32:21.484Z,84.58
2017-09-17T20:34:56.485Z,84.55
2017-09-17T20:37:31.801Z,84.88
2017-09-17T20:40:06.920Z,84.89
2017-09-17T20:42:41.876Z,84.83
2017-09-17T20:45:16.634Z,84.97
2017-09-17T20:47:51.522Z,84.37
2017-09-17T20:50:26.566Z,85.27
2017-09-17T20:53:01.464Z,84.79
2017-09-17T20:55:36.254Z,84.51
2017-09-17T20:58:11.008Z,84.52
2017-09-17T21:00:45.971Z,84.82
2017-09-17T21:03:20.759Z,86.47
2017-09-17T21:05:55.756Z,87.49
2017-09-17T21:08:30.461Z,87.28
2017-09-17T21:11:05.445Z,86.94
2017-09-17T21:13:40.393Z,86.79
2017-09-17T21:16:15.395Z,86.96
2017-09-17T21:18:50.320Z,87.04
2017-09-17T21:21:25.236Z,87.52
2017-09-17T21:24:00.128Z,88.01
2017-09-17T21:26:35.204Z,87.50
2017-09-17T21:29:09.810Z,87.14
2017-09-17T21:31:45.323Z,86.86
2017-09-17T21:34:19.945Z,86.83
2017-09-17T21:36:54.802Z,86.76
2017-09-17T21:39:29.499Z,86.57
2017-09-17T21:42:04.816Z,86.35
2017-09-17T21:44:39.261Z,86.10
2017-09-17T21:47:13.657Z,85.77
2017-09-17T21:49:48.083Z,85.87
2017-09-17T21:52:22.894Z,86.04
2017-09-17T21:54:57.792Z,86.60
2017-09-17T21:57:32.535Z,86.67
2017-09-17T22:00:07.761Z,86.62
2017-09-17T22:02:42.385Z,86.54
2017-09-17T22:05:17.069Z,86.54
2017-09-17T22:07:52.066Z,86.69
2017-09-17T22:10:27.184Z,87.04
2017-09-17T22:13:02.591Z,87.53
2017-09-17T22:15:37.195Z,87.63
2017-09-17T22:18:11.839Z,88.49
2017-09-17T22:20:47.024Z,88.63
2017-09-17T22:23:22.786Z,88.62
2017-09-17T22:25:57.716Z,88.56
2017-09-17T22:28:32.520Z,88.77
2017-09-17T22:31:08.062Z,89.21
2017-09-17T22:33:42.465Z,89.30
2017-09-17T22:36:17.515Z,90.43
2017-09-17T22:38:52.412Z,91.51
2017-09-17T22:41:27.332Z,91.28
2017-09-17T22:44:11.428Z,91.14
2017-09-17T22:46:45.928Z,90.99
2017-09-17T22:49:20.859Z,91.38
2017-09-17T22:51:56.048Z,91.13
2017-09-17T22:54:30.466Z,91.19
2017-09-17T22:57:05.453Z,90.93
2017-09-17T22:59:39.859Z,90.61
2017-09-17T23:02:14.847Z,90.86
2017-09-17T23:04:49.737Z,91.14
2017-09-17T23:07:24.834Z,91.02
2017-09-17T23:09:59.607Z,90.55
2017-09-17T23:12:34.295Z,90.10
2017-09-17T23:15:09.235Z,89.96
2017-09-17T23:17:43.815Z,89.88
2017-09-17T23:20:18.811Z,89.83
2017-09-17T23:22:53.670Z,89.91
2017-09-17T23:25:28.578Z,89.87
2017-09-17T23:28:03.479Z,89.90
2017-09-17T23:30:38.388Z,89.45
2017-09-17T23:33:13.416Z,89.12
2017-09-17T23:35:48.336Z,88.72
2017-09-17T23:38:23.019Z,88.72
2017-09-17T23:40:57.739Z,88.79
2017-09-17T23:43:32.680Z,88.50
2017-09-17T23:46:07.496Z,88.39
2017-09-17T23:48:42.287Z,88.45
2017-09-17T23:51:16.835Z,88.34
2017-09-17T23:53:51.092Z,88.30
2017-09-17T23:56:26.084Z,88.26
2017-09-17T23:59:01.279Z,88.22
